Time;durP1;ratioP1;P1;durP2;ratioP2;P2;SDS_P1;SDS_P2;PMS_P1;PMS_P2;Temp;Humidity;BMP_temperature;BMP_pressure;BME280_temperature;BME280_humidity;BME280_pressure;Samples;Min_cycle;Max_cycle;Signal;HPM_P1;HPM_P2
2022/10/23 00:01:19;;;;;;;0.63;0.63;;;;;;;12.13;96.59;95672.75;4268962;33;20205;-64
2022/10/23 00:03:46;;;;;;;0.17;0.17;;;;;;;12.31;96.06;95671.87;4309467;32;20201;-64
2022/10/23 00:06:13;;;;;;;3.00;0.63;;;;;;;12.41;95.99;95670.91;4313725;33;20253;-64
2022/10/23 00:08:39;;;;;;;0.30;0.30;;;;;;;12.12;96.59;95673.84;4302604;33;20307;-64
2022/10/23 00:11:09;;;;;;;0.20;0.20;;;;;;;12.14;96.66;95664.50;4318380;33;20249;-64
2022/10/23 00:13:36;;;;;;;0.53;0.53;;;;;;;12.35;96.06;95657.69;4315254;33;20266;-64
2022/10/23 00:16:01;;;;;;;0.60;0.60;;;;;;;12.42;95.37;95661.84;4302676;33;20189;-65
2022/10/23 00:18:30;;;;;;;0.40;0.40;;;;;;;12.25;95.53;95657.91;4295403;33;20205;-65
2022/10/23 00:20:56;;;;;;;0.20;0.20;;;;;;;12.36;95.17;95661.94;4309435;32;20236;-65
2022/10/23 00:23:22;;;;;;;0.60;0.20;;;;;;;12.28;95.23;95659.16;4297519;33;20236;-64
2022/10/23 00:25:48;;;;;;;0.57;0.57;;;;;;;12.09;95.58;95669.09;4278184;33;20200;-65
2022/10/23 00:28:15;;;;;;;0.23;0.23;;;;;;;12.03;96.36;95677.19;4308588;33;20209;-64
2022/10/23 00:30:41;;;;;;;0.33;0.30;;;;;;;12.11;96.24;95664.28;4312694;32;20189;-64
2022/10/23 00:33:07;;;;;;;0.40;0.40;;;;;;;12.09;96.06;95661.12;4329368;32;20269;-64
2022/10/23 00:35:32;;;;;;;0.20;0.20;;;;;;;12.24;95.52;95659.00;4331930;32;20279;-64
2022/10/23 00:37:57;;;;;;;0.67;0.67;;;;;;;11.99;95.81;95662.13;4319410;32;20209;-64
2022/10/23 00:40:24;;;;;;;0.10;0.10;;;;;;;12.13;96.01;95654.94;4317708;32;20283;-64
2022/10/23 00:42:50;;;;;;;1.40;0.40;;;;;;;12.18;95.14;95656.72;4317839;32;20193;-64
2022/10/23 00:45:23;;;;;;;0.53;0.53;;;;;;;12.24;95.04;95656.34;4314176;32;20208;-64
2022/10/23 00:47:50;;;;;;;0.20;0.20;;;;;;;12.17;94.98;95655.94;4321925;32;20206;-64
2022/10/23 00:50:16;;;;;;;6.77;0.87;;;;;;;12.21;94.91;95656.13;4325049;32;20204;-64
2022/10/23 00:52:48;;;;;;;2.93;0.77;;;;;;;12.33;94.27;95641.25;4329678;32;20189;-64
2022/10/23 00:55:17;;;;;;;0.10;0.10;;;;;;;12.28;93.93;95657.28;4329455;32;20189;-65
2022/10/23 00:57:45;;;;;;;0.30;0.30;;;;;;;12.39;93.70;95653.38;4303000;33;20190;-64
2022/10/23 01:00:17;;;;;;;0.40;0.40;;;;;;;12.32;93.98;95663.59;4289931;33;20205;-64
2022/10/23 01:02:43;;;;;;;0.20;0.20;;;;;;;12.44;93.24;95654.38;4308660;33;20248;-64
2022/10/23 01:05:09;;;;;;;0.40;0.20;;;;;;;12.09;93.95;95655.81;4320535;32;20197;-64
2022/10/23 01:07:48;;;;;;;0.20;0.20;;;;;;;11.98;94.53;95657.88;4324608;32;20201;-64
2022/10/23 01:10:36;;;;;;;1.90;0.30;;;;;;;12.00;94.87;95656.50;4325071;32;20185;-64
2022/10/23 01:13:10;;;;;;;0.00;0.00;;;;;;;12.06;94.94;95654.53;4323699;32;20194;-64
2022/10/23 01:15:42;;;;;;;0.30;0.30;;;;;;;12.19;94.24;95653.75;4345207;32;20232;-64
2022/10/23 01:18:35;;;;;;;0.03;0.03;;;;;;;12.24;93.92;95643.03;4308089;32;20219;-63
2022/10/23 01:21:13;;;;;;;0.00;0.00;;;;;;;12.20;94.17;95644.69;4316613;32;20200;-63
2022/10/23 01:24:03;;;;;;;0.10;0.10;;;;;;;12.27;93.92;95638.97;4320339;32;20240;-63
2022/10/23 01:26:54;;;;;;;0.30;0.30;;;;;;;12.34;93.18;95639.38;4323344;32;20194;-64
2022/10/23 01:29:43;;;;;;;0.20;0.20;;;;;;;12.20;93.40;95633.28;4333377;32;20236;-64
2022/10/23 01:32:18;;;;;;;0.53;0.40;;;;;;;12.09;93.27;95637.19;4312243;33;20259;-63
2022/10/23 01:34:55;;;;;;;0.10;0.10;;;;;;;11.79;94.14;95631.34;4308593;32;20197;-63
2022/10/23 01:37:50;;;;;;;0.10;0.10;;;;;;;11.65;94.91;95633.94;4308203;32;20240;-64
2022/10/23 01:40:27;;;;;;;0.20;0.20;;;;;;;11.64;95.56;95637.69;4316706;32;20205;-63
2022/10/23 01:42:58;;;;;;;0.10;0.10;;;;;;;11.79;95.26;95633.22;4332933;32;20201;-63
2022/10/23 01:45:46;;;;;;;0.00;0.00;;;;;;;11.98;94.15;95642.72;4276788;32;20253;-64
2022/10/23 01:48:18;;;;;;;0.30;0.30;;;;;;;11.90;94.10;95645.25;4310416;33;20201;-64
2022/10/23 01:50:46;;;;;;;0.10;0.10;;;;;;;11.74;94.08;95633.28;4334142;32;20193;-64
2022/10/23 01:53:13;;;;;;;0.10;0.10;;;;;;;11.68;94.47;95625.37;4299846;32;20225;-63
2022/10/23 01:55:41;;;;;;;0.30;0.30;;;;;;;11.63;95.00;95619.41;4329797;32;20201;-63
2022/10/23 01:58:29;;;;;;;1.07;0.53;;;;;;;11.82;94.36;95622.00;4297753;33;20340;-64
2022/10/23 02:00:59;;;;;;;0.10;0.10;;;;;;;11.62;94.42;95613.28;4287459;32;20201;-64
2022/10/23 02:03:30;;;;;;;0.10;0.10;;;;;;;11.67;94.52;95605.22;4324161;33;20190;-64
2022/10/23 02:05:56;;;;;;;0.23;0.23;;;;;;;11.69;94.18;95603.06;4321603;32;20240;-64
2022/10/23 02:08:22;;;;;;;0.07;0.07;;;;;;;11.80;94.21;95609.03;4316898;32;20227;-65
2022/10/23 02:11:08;;;;;;;0.10;0.10;;;;;;;11.83;93.63;95602.31;4342565;32;20197;-65
2022/10/23 02:13:37;;;;;;;0.10;0.10;;;;;;;11.79;93.62;95606.66;4322778;32;20197;-64
2022/10/23 02:16:33;;;;;;;0.20;0.20;;;;;;;11.91;93.48;95606.94;4318637;32;20213;-64
2022/10/23 02:19:41;;;;;;;0.20;0.20;;;;;;;11.82;93.45;95598.88;4293819;33;20244;-64
2022/10/23 02:22:11;;;;;;;1.50;0.60;;;;;;;11.57;93.75;95599.28;4294161;33;20182;-64
2022/10/23 02:24:44;;;;;;;0.10;0.10;;;;;;;11.78;93.54;95591.78;4301528;33;20296;-64
2022/10/23 02:27:19;;;;;;;0.20;0.20;;;;;;;11.79;93.22;95590.69;4287932;33;20202;-64
2022/10/23 02:29:50;;;;;;;0.20;0.20;;;;;;;11.76;93.23;95589.41;4273012;33;20193;-64
2022/10/23 02:32:21;;;;;;;0.10;0.10;;;;;;;11.87;92.96;95588.13;4297409;33;20212;-64
2022/10/23 02:34:49;;;;;;;0.20;0.20;;;;;;;11.94;92.58;95577.91;4323386;33;20201;-64
2022/10/23 02:37:19;;;;;;;0.07;0.07;;;;;;;11.88;92.06;95578.28;4333955;32;20189;-64
2022/10/23 02:39:55;;;;;;;0.10;0.10;;;;;;;11.77;92.71;95579.56;4314083;32;20244;-64
2022/10/23 02:42:25;;;;;;;0.30;0.30;;;;;;;11.69;92.71;95570.38;4297384;32;20202;-64
2022/10/23 02:45:09;;;;;;;0.10;0.10;;;;;;;11.26;94.39;95570.56;4308991;32;20197;-64
2022/10/23 02:47:47;;;;;;;0.07;0.07;;;;;;;11.33;94.47;95571.00;4321831;33;20253;-64
2022/10/23 02:50:31;;;;;;;0.20;0.20;;;;;;;11.51;93.57;95573.88;4319223;33;20303;-64
2022/10/23 02:53:23;;;;;;;0.20;0.20;;;;;;;11.36;93.76;95561.66;4291078;33;20197;-64
2022/10/23 02:56:13;;;;;;;0.20;0.20;;;;;;;11.35;93.82;95566.19;4260358;33;20209;-64
2022/10/23 02:59:08;;;;;;;0.20;0.20;;;;;;;11.50;93.61;95561.69;4305549;33;20281;-65
2022/10/23 03:01:54;;;;;;;0.00;0.00;;;;;;;11.59;93.02;95560.72;4296334;33;20198;-64
2022/10/23 03:04:24;;;;;;;0.00;0.00;;;;;;;11.26;93.62;95562.59;4296168;33;20257;-64
2022/10/23 03:06:51;;;;;;;0.47;0.47;;;;;;;10.99;94.76;95563.34;4306994;33;20207;-65
2022/10/23 03:09:17;;;;;;;0.00;0.00;;;;;;;10.72;96.05;95560.56;4299891;33;20236;-64
2022/10/23 03:11:46;;;;;;;0.20;0.20;;;;;;;10.87;95.91;95565.63;4289256;33;20208;-64
2022/10/23 03:14:13;;;;;;;0.43;0.40;;;;;;;10.83;96.00;95558.53;4272969;33;20202;-64
2022/10/23 03:16:38;;;;;;;0.33;0.33;;;;;;;10.98;95.46;95558.31;4294209;33;20243;-64
2022/10/23 03:19:04;;;;;;;0.10;0.10;;;;;;;11.01;95.47;95555.84;4318869;33;20186;-64
2022/10/23 03:21:29;;;;;;;0.57;0.57;;;;;;;11.15;94.55;95555.13;4305920;33;20199;-64
2022/10/23 03:23:54;;;;;;;0.00;0.00;;;;;;;11.13;94.20;95559.91;4314228;33;20190;-64
2022/10/23 03:26:20;;;;;;;0.07;0.07;;;;;;;10.82;95.51;95563.03;4313152;33;20267;-64
2022/10/23 03:28:45;;;;;;;0.10;0.10;;;;;;;10.73;95.97;95556.81;4327778;33;20242;-64
2022/10/23 03:31:10;;;;;;;0.17;0.17;;;;;;;10.92;95.42;95554.94;4312739;33;20233;-64
2022/10/23 03:33:36;;;;;;;0.57;0.20;;;;;;;11.22;94.55;95540.38;4334577;32;20255;-64
2022/10/23 03:36:02;;;;;;;0.17;0.17;;;;;;;11.02;94.26;95541.50;4335705;32;20197;-64
2022/10/23 03:38:27;;;;;;;0.10;0.10;;;;;;;11.03;94.98;95537.75;4358409;32;20205;-64
2022/10/23 03:40:52;;;;;;;0.30;0.30;;;;;;;11.28;93.61;95539.22;4350122;32;20190;-64
2022/10/23 03:43:18;;;;;;;0.20;0.20;;;;;;;11.26;93.02;95543.22;4345270;32;20252;-64
2022/10/23 03:45:43;;;;;;;0.20;0.20;;;;;;;11.28;92.92;95541.06;4342973;32;20237;-64
2022/10/23 03:48:08;;;;;;;0.10;0.10;;;;;;;11.32;92.68;95539.41;4342936;32;20190;-63
2022/10/23 03:50:34;;;;;;;3.83;0.30;;;;;;;10.91;93.22;95544.59;4354811;32;20185;-63
2022/10/23 03:53:00;;;;;;;0.20;0.20;;;;;;;10.66;94.60;95546.56;4344710;32;20201;-63
2022/10/23 03:55:26;;;;;;;0.10;0.10;;;;;;;10.68;94.98;95540.97;4326252;32;20217;-63
2022/10/23 03:57:54;;;;;;;0.60;0.40;;;;;;;10.79;94.75;95547.72;4351334;32;20225;-64
2022/10/23 04:00:21;;;;;;;2.10;0.63;;;;;;;10.89;94.18;95544.09;4333121;32;20198;-64
2022/10/23 04:02:46;;;;;;;0.17;0.17;;;;;;;11.03;93.43;95543.06;4338684;32;20197;-63
2022/10/23 04:05:11;;;;;;;0.33;0.33;;;;;;;11.13;92.66;95534.16;4331970;32;20255;-63
2022/10/23 04:07:37;;;;;;;0.00;0.00;;;;;;;11.10;92.46;95545.34;4330934;32;20344;-63
2022/10/23 04:10:04;;;;;;;0.17;0.17;;;;;;;10.98;92.27;95537.88;4351823;32;20189;-63
2022/10/23 04:12:29;;;;;;;0.70;0.37;;;;;;;10.83;93.06;95532.78;4346300;32;20197;-63
2022/10/23 04:14:55;;;;;;;1.70;0.20;;;;;;;10.83;93.21;95539.94;4328646;33;20197;-63
2022/10/23 04:17:20;;;;;;;0.10;0.10;;;;;;;10.81;93.08;95540.22;4332035;32;20213;-63
2022/10/23 04:19:46;;;;;;;0.37;0.37;;;;;;;10.97;92.95;95535.50;4350098;32;20197;-63
2022/10/23 04:22:11;;;;;;;0.40;0.33;;;;;;;10.90;92.96;95538.50;4346618;32;20194;-63
2022/10/23 04:24:36;;;;;;;0.23;0.20;;;;;;;10.92;92.86;95541.66;4329608;32;20251;-63
2022/10/23 04:27:02;;;;;;;0.07;0.07;;;;;;;11.04;92.21;95538.53;4340843;32;20198;-63
2022/10/23 04:29:30;;;;;;;0.10;0.10;;;;;;;11.19;91.81;95537.53;4332020;32;20189;-63
2022/10/23 04:31:56;;;;;;;0.00;0.00;;;;;;;11.12;91.57;95537.91;4344725;32;20189;-63
2022/10/23 04:34:21;;;;;;;0.77;0.23;;;;;;;11.17;91.73;95529.06;4345910;32;20265;-63
2022/10/23 04:36:46;;;;;;;0.30;0.30;;;;;;;11.26;91.57;95536.06;4355824;32;20365;-63
2022/10/23 04:39:13;;;;;;;0.03;0.03;;;;;;;11.30;91.10;95547.69;4354393;32;20177;-63
2022/10/23 04:41:38;;;;;;;0.27;0.27;;;;;;;11.26;90.93;95538.72;4359063;32;20260;-63
2022/10/23 04:44:04;;;;;;;0.10;0.10;;;;;;;11.12;91.19;95537.91;4343294;32;20223;-63
2022/10/23 04:46:29;;;;;;;0.30;0.30;;;;;;;11.24;91.24;95538.22;4343283;32;20253;-63
2022/10/23 04:48:54;;;;;;;0.13;0.10;;;;;;;11.37;90.37;95536.69;4330535;32;20212;-63
2022/10/23 04:51:20;;;;;;;0.20;0.20;;;;;;;11.16;90.90;95538.91;4332917;32;20217;-63
2022/10/23 04:53:45;;;;;;;0.60;0.50;;;;;;;11.13;91.07;95536.81;4358482;32;20181;-63
2022/10/23 04:56:13;;;;;;;0.20;0.20;;;;;;;11.25;90.75;95529.16;4344290;32;20204;-63
2022/10/23 04:58:38;;;;;;;0.00;0.00;;;;;;;11.05;91.26;95529.50;4354539;32;20282;-63
2022/10/23 05:01:06;;;;;;;0.40;0.40;;;;;;;11.14;90.96;95522.47;4355799;32;20194;-63
2022/10/23 05:03:32;;;;;;;0.00;0.00;;;;;;;11.34;90.37;95526.63;4323927;33;20201;-63
2022/10/23 05:05:57;;;;;;;0.10;0.10;;;;;;;11.49;89.39;95522.91;4344994;32;20188;-63
2022/10/23 05:08:23;;;;;;;0.50;0.50;;;;;;;11.40;89.86;95519.37;4339896;32;20190;-63
2022/10/23 05:10:48;;;;;;;0.37;0.10;;;;;;;11.44;89.56;95518.47;4333011;32;20182;-64
2022/10/23 05:13:18;;;;;;;0.00;0.00;;;;;;;11.53;88.98;95521.25;4346355;32;20188;-63
2022/10/23 05:15:48;;;;;;;0.27;0.27;;;;;;;11.51;89.26;95520.75;4334131;32;20253;-63
2022/10/23 05:18:24;;;;;;;0.03;0.03;;;;;;;11.51;89.12;95521.53;4340062;32;20235;-63
2022/10/23 05:20:53;;;;;;;0.27;0.20;;;;;;;11.31;90.13;95516.59;4336648;32;20204;-63
2022/10/23 05:23:21;;;;;;;0.73;0.40;;;;;;;11.46;89.65;95513.66;4338223;32;20213;-63
2022/10/23 05:25:46;;;;;;;0.10;0.10;;;;;;;11.47;89.61;95517.09;4331915;32;20193;-64
2022/10/23 05:28:12;;;;;;;0.30;0.30;;;;;;;11.39;89.74;95517.78;4327852;32;20239;-63
2022/10/23 05:30:38;;;;;;;0.40;0.40;;;;;;;11.43;89.86;95508.94;4330421;32;20204;-63
2022/10/23 05:33:03;;;;;;;0.10;0.10;;;;;;;11.49;90.04;95502.44;4341155;32;20193;-63
2022/10/23 05:35:29;;;;;;;0.40;0.40;;;;;;;11.63;89.49;95503.25;4353523;32;20215;-63
2022/10/23 05:37:56;;;;;;;0.40;0.40;;;;;;;11.39;89.90;95499.19;4347821;32;20241;-63
2022/10/23 05:40:22;;;;;;;0.50;0.50;;;;;;;11.53;89.74;95498.13;4343972;32;20181;-63
2022/10/23 05:42:48;;;;;;;0.17;0.17;;;;;;;11.46;89.75;95495.06;4331371;33;20194;-63
2022/10/23 05:45:14;;;;;;;0.20;0.20;;;;;;;11.44;89.63;95502.53;4346344;32;20207;-63
2022/10/23 05:47:39;;;;;;;0.10;0.10;;;;;;;11.40;89.54;95498.13;4331592;32;20273;-63
2022/10/23 05:50:05;;;;;;;0.27;0.27;;;;;;;11.44;89.75;95497.22;4331156;32;20189;-64
2022/10/23 05:52:30;;;;;;;0.07;0.07;;;;;;;11.39;89.89;95491.22;4354947;32;20254;-63
2022/10/23 05:54:55;;;;;;;0.03;0.03;;;;;;;11.48;89.88;95494.75;4345960;32;20233;-63
2022/10/23 05:57:21;;;;;;;0.00;0.00;;;;;;;11.40;89.58;95493.59;4343503;32;20233;-64
2022/10/23 05:59:46;;;;;;;0.17;0.17;;;;;;;11.29;89.82;95492.97;4352378;32;20181;-63
2022/10/23 06:02:11;;;;;;;0.17;0.17;;;;;;;11.48;89.55;95503.53;4347122;32;20197;-63
2022/10/23 06:04:37;;;;;;;0.10;0.10;;;;;;;11.26;89.82;95508.72;4338371;32;20208;-63
2022/10/23 06:07:03;;;;;;;0.10;0.10;;;;;;;11.24;90.46;95503.69;4329846;32;20209;-63
2022/10/23 06:09:29;;;;;;;0.20;0.20;;;;;;;11.25;90.36;95501.81;4355266;32;20193;-63
2022/10/23 06:11:54;;;;;;;0.20;0.20;;;;;;;11.37;89.95;95504.81;4350890;32;20192;-63
2022/10/23 06:14:20;;;;;;;0.10;0.10;;;;;;;11.48;89.60;95518.69;4351092;32;20193;-63
2022/10/23 06:16:45;;;;;;;0.10;0.10;;;;;;;11.52;88.79;95517.81;4332855;32;20198;-63
2022/10/23 06:19:11;;;;;;;0.50;0.50;;;;;;;11.44;89.00;95521.13;4343612;32;20203;-63
2022/10/23 06:21:37;;;;;;;0.13;0.13;;;;;;;11.40;89.47;95520.16;4329129;32;20296;-63
2022/10/23 06:24:04;;;;;;;0.30;0.30;;;;;;;11.47;89.33;95520.53;4343491;32;20193;-63
2022/10/23 06:26:29;;;;;;;0.37;0.37;;;;;;;11.29;89.66;95502.81;4344663;32;20275;-62
2022/10/23 06:28:55;;;;;;;0.00;0.00;;;;;;;11.42;89.52;95503.94;4349903;32;20193;-62
2022/10/23 06:31:25;;;;;;;3.50;0.67;;;;;;;11.40;89.58;95512.19;4343673;32;20234;-63
2022/10/23 06:33:51;;;;;;;0.20;0.20;;;;;;;11.38;89.61;95503.72;4339929;32;20257;-63
2022/10/23 06:36:17;;;;;;;0.10;0.10;;;;;;;11.31;90.23;95512.06;4338859;32;20211;-63
2022/10/23 06:38:42;;;;;;;0.27;0.27;;;;;;;11.34;90.70;95508.03;4342422;32;20186;-63
2022/10/23 06:41:13;;;;;;;0.40;0.40;;;;;;;11.46;89.95;95500.38;4324793;32;20196;-63
2022/10/23 06:43:38;;;;;;;1.50;0.50;;;;;;;11.59;89.38;95504.13;4334844;32;20190;-63
2022/10/23 06:46:04;;;;;;;0.27;0.23;;;;;;;11.54;89.67;95504.22;4351923;32;20189;-63
2022/10/23 06:48:30;;;;;;;2.10;0.40;;;;;;;11.67;89.04;95511.41;4341701;32;20244;-64
2022/10/23 06:50:56;;;;;;;2.30;0.70;;;;;;;12.14;96.83;95504.91;4331432;32;20189;-63
2022/10/23 06:53:23;;;;;;;0.20;0.20;;;;;;;12.50;100.00;95501.47;4335017;32;20240;-63
2022/10/23 06:55:50;;;;;;;0.20;0.20;;;;;;;12.69;100.00;95512.75;4344245;33;20211;-63
2022/10/23 06:58:16;;;;;;;0.63;0.50;;;;;;;12.94;100.00;95514.03;4344389;32;20209;-63
2022/10/23 07:00:41;;;;;;;0.43;0.43;;;;;;;13.09;100.00;95516.34;4330588;32;20207;-63
2022/10/23 07:03:07;;;;;;;0.40;0.40;;;;;;;13.00;99.30;95512.81;4345594;32;20186;-61
2022/10/23 07:05:33;;;;;;;5.63;0.87;;;;;;;13.09;99.87;95527.00;4329354;33;20204;-49
2022/10/23 07:07:58;;;;;;;6.93;0.93;;;;;;;13.76;100.00;95527.69;4335798;32;20189;-44
2022/10/23 07:10:24;;;;;;;1.10;0.67;;;;;;;14.31;100.00;95529.09;4337100;32;20197;-48
2022/10/23 07:12:49;;;;;;;3.63;1.03;;;;;;;14.41;100.00;95526.94;4331578;32;20239;-57
2022/10/23 07:15:15;;;;;;;0.73;0.67;;;;;;;14.55;100.00;95524.12;4347049;32;20259;-46
2022/10/23 07:17:40;;;;;;;0.40;0.40;;;;;;;14.40;98.10;95525.38;4345313;32;20193;-46
2022/10/23 07:20:06;;;;;;;2.53;0.80;;;;;;;14.79;98.41;95518.31;4339353;32;20185;-47
2022/10/23 07:22:31;;;;;;;0.60;0.60;;;;;;;15.01;97.97;95506.69;4337211;32;20239;-46
2022/10/23 07:24:56;;;;;;;1.37;0.70;;;;;;;14.66;90.13;95513.94;4336709;32;20290;-50
2022/10/23 07:27:22;;;;;;;0.40;0.40;;;;;;;15.17;96.04;95507.00;4345641;32;20193;-47
2022/10/23 07:29:51;;;;;;;0.17;0.17;;;;;;;15.07;93.23;95502.75;4333799;32;20227;-46
2022/10/23 07:32:17;;;;;;;0.47;0.47;;;;;;;14.84;82.38;95496.81;4333715;32;20189;-47
2022/10/23 07:34:42;;;;;;;0.30;0.30;;;;;;;14.79;81.11;95496.94;4340983;32;20209;-48
2022/10/23 07:37:07;;;;;;;0.70;0.33;;;;;;;15.16;88.57;95500.06;4337971;32;20266;-48
2022/10/23 07:39:33;;;;;;;0.30;0.30;;;;;;;15.47;90.48;95497.94;4344713;32;20256;-44
2022/10/23 07:41:58;;;;;;;0.20;0.20;;;;;;;15.59;89.01;95500.75;4346968;32;20241;-49
2022/10/23 07:44:24;;;;;;;0.10;0.10;;;;;;;15.62;85.91;95502.78;4332391;32;20197;-47
2022/10/23 07:46:49;;;;;;;0.47;0.47;;;;;;;15.77;86.86;95512.97;4328979;32;20206;-50
2022/10/23 07:49:14;;;;;;;0.87;0.60;;;;;;;15.76;85.29;95521.31;4321942;32;20200;-47
2022/10/23 07:51:40;;;;;;;0.50;0.50;;;;;;;15.84;85.85;95519.69;4340065;32;20205;-49
2022/10/23 07:54:08;;;;;;;0.27;0.27;;;;;;;15.98;85.48;95515.72;4343621;32;20196;-49
2022/10/23 07:56:33;;;;;;;0.10;0.10;;;;;;;15.90;83.35;95518.41;4326990;33;20201;-46
2022/10/23 07:58:59;;;;;;;0.17;0.17;;;;;;;16.03;85.10;95514.72;4339815;32;20207;-48
2022/10/23 08:01:31;;;;;;;0.10;0.10;;;;;;;15.93;83.54;95510.53;4339623;32;20284;-46
2022/10/23 08:03:56;;;;;;;0.30;0.30;;;;;;;15.40;76.17;95513.66;4341851;32;20209;-61
2022/10/23 08:06:22;;;;;;;0.10;0.10;;;;;;;15.32;79.45;95509.94;4343175;32;20193;-62
2022/10/23 08:08:47;;;;;;;5.50;0.57;;;;;;;15.11;77.80;95512.50;4341568;32;20190;-60
2022/10/23 08:11:16;;;;;;;0.07;0.07;;;;;;;14.70;77.97;95504.97;4340423;32;20236;-60
2022/10/23 08:13:43;;;;;;;0.83;0.83;;;;;;;14.48;79.10;95504.34;4341703;32;20197;-60
2022/10/23 08:16:08;;;;;;;1.47;0.63;;;;;;;14.10;80.66;95502.22;4327222;32;20210;-60
2022/10/23 08:18:33;;;;;;;1.27;1.27;;;;;;;13.90;81.31;95500.12;4320634;32;20254;-61
2022/10/23 08:21:01;;;;;;;0.60;0.60;;;;;;;13.86;81.87;95505.28;4340210;32;20264;-60
2022/10/23 08:23:27;;;;;;;0.30;0.30;;;;;;;13.77;82.48;95497.25;4343445;32;20240;-60
2022/10/23 08:25:57;;;;;;;0.37;0.37;;;;;;;13.80;82.38;95497.72;4334429;32;20208;-61
2022/10/23 08:28:23;;;;;;;0.20;0.20;;;;;;;13.74;82.28;95505.06;4331968;32;20205;-60
2022/10/23 08:30:48;;;;;;;0.20;0.20;;;;;;;13.80;82.04;95503.06;4338918;32;20231;-60
2022/10/23 08:33:14;;;;;;;0.30;0.30;;;;;;;13.81;82.63;95501.97;4330545;32;20236;-60
2022/10/23 08:35:39;;;;;;;1.33;0.43;;;;;;;13.76;83.55;95498.34;4340516;32;20342;-60
2022/10/23 08:38:05;;;;;;;0.30;0.30;;;;;;;13.88;82.83;95500.44;4329307;32;20253;-61
2022/10/23 08:40:31;;;;;;;0.03;0.03;;;;;;;13.89;82.98;95490.56;4339311;32;20212;-60
2022/10/23 08:43:01;;;;;;;0.30;0.30;;;;;;;13.94;82.90;95498.38;4334916;32;20241;-60
2022/10/23 08:45:48;;;;;;;0.30;0.23;;;;;;;14.00;82.66;95489.94;4323980;32;20232;-60
2022/10/23 08:48:20;;;;;;;0.20;0.20;;;;;;;14.04;82.70;95503.47;4327936;33;20256;-60
2022/10/23 08:50:49;;;;;;;0.23;0.23;;;;;;;14.07;83.35;95498.28;4341954;32;20212;-61
2022/10/23 08:53:24;;;;;;;0.00;0.00;;;;;;;14.06;83.37;95495.94;4339366;32;20209;-60
2022/10/23 08:56:00;;;;;;;0.30;0.30;;;;;;;14.10;83.24;95494.22;4327539;32;20260;-60
2022/10/23 08:58:49;;;;;;;0.27;0.27;;;;;;;14.17;83.79;95483.84;4343986;32;20233;-60
2022/10/23 09:01:39;;;;;;;0.17;0.17;;;;;;;14.22;82.66;95478.38;4335101;32;20208;-60
2022/10/23 09:04:10;;;;;;;0.47;0.47;;;;;;;14.30;82.22;95464.28;4314077;33;20204;-61
2022/10/23 09:07:03;;;;;;;0.00;0.00;;;;;;;14.32;81.85;95472.75;4317785;32;20212;-60
2022/10/23 09:09:50;;;;;;;0.00;0.00;;;;;;;14.42;81.48;95466.34;4321949;32;20224;-61
2022/10/23 09:12:20;;;;;;;0.40;0.40;;;;;;;14.44;81.25;95464.94;4319555;32;20193;-61
2022/10/23 09:15:20;;;;;;;2.20;0.40;;;;;;;14.62;80.24;95467.59;4314585;32;20194;-60
2022/10/23 09:17:48;;;;;;;0.40;0.40;;;;;;;14.64;80.82;95471.53;4323033;32;20194;-61
2022/10/23 09:20:30;;;;;;;0.30;0.30;;;;;;;14.60;81.61;95472.47;4304588;33;20212;-60
2022/10/23 09:23:17;;;;;;;0.23;0.23;;;;;;;14.57;81.21;95459.72;4318460;32;20185;-61
2022/10/23 09:25:44;;;;;;;0.13;0.13;;;;;;;14.62;81.89;95462.25;4319364;32;20201;-61
2022/10/23 09:28:24;;;;;;;0.30;0.30;;;;;;;14.64;81.63;95457.38;4324281;32;20231;-60
2022/10/23 09:30:51;;;;;;;0.10;0.10;;;;;;;14.69;81.47;95455.34;4312372;33;20209;-60
2022/10/23 09:33:27;;;;;;;0.17;0.17;;;;;;;14.76;81.37;95460.19;4271679;33;20194;-61
2022/10/23 09:36:14;;;;;;;0.40;0.40;;;;;;;14.85;80.07;95447.62;4318017;32;20193;-61
2022/10/23 09:38:54;;;;;;;0.20;0.20;;;;;;;14.96;79.34;95450.75;4323539;32;20223;-61
2022/10/23 09:41:39;;;;;;;0.30;0.30;;;;;;;14.97;79.92;95454.97;4290724;33;20189;-60
2022/10/23 09:44:29;;;;;;;0.93;0.70;;;;;;;14.96;80.62;95456.88;4318292;32;20193;-61
2022/10/23 09:46:59;;;;;;;0.10;0.10;;;;;;;15.03;80.85;95459.06;4332224;32;20181;-60
2022/10/23 09:49:27;;;;;;;0.30;0.30;;;;;;;15.07;80.39;95449.31;4317089;32;20193;-60
2022/10/23 09:52:04;;;;;;;0.10;0.10;;;;;;;15.09;80.64;95447.88;4308129;32;20202;-61
2022/10/23 09:54:37;;;;;;;0.20;0.20;;;;;;;15.20;80.72;95452.88;4290920;33;20205;-60
2022/10/23 09:57:27;;;;;;;0.40;0.20;;;;;;;15.23;80.79;95441.56;4288520;32;20269;-61
2022/10/23 10:00:00;;;;;;;1.70;0.57;;;;;;;15.35;80.45;95434.44;4316738;32;20190;-61
2022/10/23 10:02:32;;;;;;;0.57;0.50;;;;;;;15.31;81.07;95435.41;4320461;32;20189;-61
2022/10/23 10:04:58;;;;;;;0.47;0.30;;;;;;;15.44;80.45;95434.41;4272173;33;20244;-61
2022/10/23 10:07:27;;;;;;;1.07;0.97;;;;;;;15.59;79.05;95425.88;4315621;32;20198;-61
2022/10/23 10:10:06;;;;;;;0.40;0.40;;;;;;;15.75;79.01;95424.22;4265693;32;20194;-60
2022/10/23 10:12:51;;;;;;;0.13;0.13;;;;;;;15.77;79.11;95435.41;4341028;32;20208;-60
2022/10/23 10:15:19;;;;;;;0.30;0.30;;;;;;;15.86;78.87;95429.19;4326647;32;20188;-60
2022/10/23 10:17:59;;;;;;;0.17;0.17;;;;;;;15.98;78.59;95430.06;4330627;32;20207;-61
2022/10/23 10:20:37;;;;;;;0.00;0.00;;;;;;;16.01;78.57;95431.28;4319221;32;20193;-62
2022/10/23 10:23:33;;;;;;;0.20;0.20;;;;;;;16.03;78.90;95423.72;4352533;32;20188;-61
2022/10/23 10:26:36;;;;;;;0.23;0.23;;;;;;;16.05;79.36;95424.97;4328165;32;20189;-60
2022/10/23 10:29:30;;;;;;;0.10;0.10;;;;;;;16.15;78.93;95423.81;4335555;32;20207;-60
2022/10/23 10:32:11;;;;;;;0.20;0.20;;;;;;;16.38;77.78;95419.72;4308852;32;20268;-61
2022/10/23 10:34:42;;;;;;;0.20;0.20;;;;;;;16.33;78.70;95425.25;4319762;32;20228;-60
2022/10/23 10:37:27;;;;;;;0.50;0.33;;;;;;;16.35;79.24;95423.03;4318594;32;20238;-61
2022/10/23 10:40:08;;;;;;;0.00;0.00;;;;;;;16.30;79.12;95415.19;4290621;33;20205;-61
2022/10/23 10:43:18;;;;;;;0.20;0.20;;;;;;;16.41;78.61;95408.34;4299109;32;20216;-61
2022/10/23 10:45:48;;;;;;;0.83;0.83;;;;;;;16.40;78.69;95397.97;4325763;33;20212;-60
2022/10/23 10:48:56;;;;;;;0.43;0.40;;;;;;;16.48;79.07;95400.56;4281666;33;20223;-61
2022/10/23 10:51:58;;;;;;;0.53;0.53;;;;;;;16.56;78.78;95393.56;4271116;33;20209;-61
2022/10/23 10:54:51;;;;;;;0.27;0.27;;;;;;;16.73;78.46;95376.56;4260501;33;20249;-60
2022/10/23 10:57:42;;;;;;;0.63;0.63;;;;;;;16.79;78.29;95376.03;4284578;33;20197;-61
2022/10/23 11:00:18;;;;;;;0.37;0.37;;;;;;;16.82;78.79;95366.56;4299899;33;20247;-61
2022/10/23 11:02:59;;;;;;;0.50;0.50;;;;;;;16.90;78.68;95373.72;4323345;33;20198;-61
2022/10/23 11:05:40;;;;;;;0.40;0.27;;;;;;;16.89;78.95;95372.13;4282823;33;20194;-61
2022/10/23 11:08:12;;;;;;;0.77;0.33;;;;;;;17.05;78.14;95366.91;4303262;32;20197;-59
2022/10/23 11:10:43;;;;;;;0.17;0.17;;;;;;;17.16;78.12;95357.34;4305246;32;20237;-59
2022/10/23 11:13:36;;;;;;;1.33;0.70;;;;;;;17.13;78.22;95358.78;4298863;33;20208;-59
2022/10/23 11:16:10;;;;;;;0.30;0.30;;;;;;;17.22;77.40;95360.59;4293404;32;20194;-59
2022/10/23 11:18:39;;;;;;;0.20;0.20;;;;;;;17.20;77.74;95357.47;4313597;33;20193;-59
2022/10/23 11:21:39;;;;;;;0.77;0.77;;;;;;;17.19;77.50;95343.28;4306175;33;20186;-59
2022/10/23 11:24:30;;;;;;;0.10;0.10;;;;;;;17.24;77.11;95339.59;4276277;33;20218;-60
2022/10/23 11:27:20;;;;;;;0.33;0.33;;;;;;;17.28;76.76;95345.81;4301526;33;20202;-59
2022/10/23 11:30:00;;;;;;;0.40;0.40;;;;;;;17.28;76.87;95337.78;4299117;33;20194;-60
2022/10/23 11:33:04;;;;;;;0.23;0.17;;;;;;;17.34;76.88;95337.22;4309457;33;20209;-59
2022/10/23 11:35:59;;;;;;;0.17;0.17;;;;;;;17.36;76.79;95339.56;4333406;32;20202;-59
2022/10/23 11:38:31;;;;;;;0.33;0.33;;;;;;;17.49;76.16;95333.09;4331151;32;20190;-60
2022/10/23 11:41:04;;;;;;;0.17;0.17;;;;;;;17.47;76.30;95332.62;4324683;32;20193;-60
2022/10/23 11:43:47;;;;;;;0.20;0.20;;;;;;;17.44;76.94;95334.13;4314705;32;20205;-60
2022/10/23 11:46:24;;;;;;;0.10;0.10;;;;;;;17.43;76.28;95323.72;4284063;33;20284;-60
2022/10/23 11:48:52;;;;;;;0.00;0.00;;;;;;;17.59;75.27;95332.62;4332493;32;20307;-59
2022/10/23 11:51:43;;;;;;;0.30;0.30;;;;;;;17.60;75.31;95331.53;4289765;33;20189;-59
2022/10/23 11:54:08;;;;;;;0.33;0.33;;;;;;;17.67;75.02;95310.28;4289279;33;20225;-60
2022/10/23 11:56:35;;;;;;;0.10;0.10;;;;;;;17.81;74.15;95316.09;4312729;33;20220;-60